createdAt,value
2022-10-05T00:01:05.830Z,60.06
2022-10-05T00:03:32.183Z,60.78
2022-10-05T00:05:58.534Z,60.56
2022-10-05T00:08:24.864Z,59.20
2022-10-05T00:10:51.208Z,60.26
2022-10-05T00:13:17.553Z,59.81
2022-10-05T00:15:43.891Z,60.99
2022-10-05T00:18:10.313Z,61.01
2022-10-05T00:20:36.652Z,61.21
2022-10-05T00:23:02.985Z,61.03
2022-10-05T00:25:29.354Z,60.31
2022-10-05T00:27:55.759Z,59.21
2022-10-05T00:30:22.113Z,60.78
2022-10-05T00:32:48.443Z,61.01
2022-10-05T00:35:14.805Z,60.13
2022-10-05T00:37:41.145Z,60.60
2022-10-05T00:40:07.480Z,60.06
2022-10-05T00:42:33.829Z,59.69
2022-10-05T00:45:00.162Z,59.35
2022-10-05T00:47:26.503Z,59.61
2022-10-05T00:49:52.840Z,60.20
2022-10-05T00:52:19.183Z,60.87
2022-10-05T00:54:45.514Z,60.26
2022-10-05T00:57:11.848Z,60.41
2022-10-05T00:59:38.180Z,60.51
2022-10-05T01:02:04.553Z,60.90
2022-10-05T01:04:30.930Z,60.60
2022-10-05T01:06:57.267Z,59.23
2022-10-05T01:09:23.604Z,58.88
2022-10-05T01:11:49.942Z,59.35
2022-10-05T01:14:16.271Z,59.65
2022-10-05T01:16:42.674Z,59.60
2022-10-05T01:19:09.157Z,59.29
2022-10-05T01:21:35.507Z,59.69
2022-10-05T01:24:01.849Z,61.07
2022-10-05T01:26:28.190Z,60.78
2022-10-05T01:28:54.525Z,60.95
2022-10-05T01:31:20.948Z,59.85
2022-10-05T01:33:47.322Z,59.70
2022-10-05T01:36:13.646Z,59.55
2022-10-05T01:38:39.985Z,59.02
2022-10-05T01:41:06.330Z,58.77
2022-10-05T01:43:32.677Z,60.55
2022-10-05T01:45:59.126Z,60.03
2022-10-05T01:48:25.505Z,60.76
2022-10-05T01:50:51.840Z,60.42
2022-10-05T01:53:18.171Z,60.18
2022-10-05T01:55:44.497Z,60.80
2022-10-05T01:58:10.852Z,61.50
2022-10-05T02:00:37.202Z,59.52
2022-10-05T02:03:03.526Z,58.95
2022-10-05T02:05:29.857Z,60.18
2022-10-05T02:07:56.188Z,60.82
2022-10-05T02:10:22.525Z,63.21
2022-10-05T02:12:48.864Z,61.27
2022-10-05T02:15:15.189Z,61.14
2022-10-05T02:17:41.518Z,62.78
2022-10-05T02:20:07.862Z,60.15
2022-10-05T02:22:34.199Z,59.92
2022-10-05T02:25:00.540Z,59.65
2022-10-05T02:27:26.893Z,60.66
2022-10-05T02:29:53.221Z,59.91
2022-10-05T02:32:19.562Z,59.84
2022-10-05T02:34:45.913Z,59.99
2022-10-05T02:37:12.260Z,61.86
2022-10-05T02:39:38.607Z,60.93
2022-10-05T02:42:04.946Z,59.12
2022-10-05T02:44:31.269Z,60.02
2022-10-05T02:46:58.037Z,59.99
2022-10-05T02:49:24.631Z,60.72
2022-10-05T02:51:50.960Z,60.00
2022-10-05T02:54:17.299Z,60.28
2022-10-05T02:56:44.004Z,60.97
2022-10-05T02:59:10.524Z,60.49
2022-10-05T03:01:36.958Z,61.22
2022-10-05T03:04:03.429Z,60.83
2022-10-05T03:06:29.777Z,62.93
2022-10-05T03:08:56.124Z,62.44
2022-10-05T03:11:22.489Z,61.48
2022-10-05T03:13:48.838Z,60.97
2022-10-05T03:16:15.226Z,60.25
2022-10-05T03:18:41.636Z,60.41
2022-10-05T03:21:07.980Z,59.83
2022-10-05T03:23:34.348Z,60.42
2022-10-05T03:26:00.678Z,59.79
2022-10-05T03:28:27.061Z,59.81
2022-10-05T03:30:53.473Z,60.39
2022-10-05T03:33:19.813Z,59.72
2022-10-05T03:35:46.147Z,61.11
2022-10-05T03:38:12.472Z,60.62
2022-10-05T03:40:38.810Z,60.16
2022-10-05T03:43:05.173Z,61.94
2022-10-05T03:45:31.501Z,62.44
2022-10-05T03:48:01.273Z,62.53
2022-10-05T03:50:28.077Z,63.32
2022-10-05T03:52:54.423Z,61.13
2022-10-05T03:55:20.750Z,61.17
2022-10-05T03:57:47.084Z,61.43
2022-10-05T04:00:13.424Z,62.32
2022-10-05T04:02:39.807Z,60.44
2022-10-05T04:05:06.171Z,62.74
2022-10-05T04:07:32.513Z,60.69
2022-10-05T04:09:58.832Z,60.38
2022-10-05T04:12:25.162Z,60.64
2022-10-05T04:14:51.562Z,61.04
2022-10-05T04:17:17.905Z,60.66
2022-10-05T04:19:44.247Z,60.01
2022-10-05T04:22:10.581Z,60.47
2022-10-05T04:24:36.917Z,59.48
2022-10-05T04:27:03.252Z,59.64
2022-10-05T04:29:29.585Z,61.44
2022-10-05T04:31:55.929Z,62.39
2022-10-05T04:34:22.265Z,61.11
2022-10-05T04:36:48.872Z,60.02
2022-10-05T04:39:15.376Z,60.31
2022-10-05T04:41:41.764Z,60.14
2022-10-05T04:44:08.088Z,60.69
2022-10-05T04:46:34.452Z,61.07
2022-10-05T04:49:00.860Z,61.58
2022-10-05T04:51:27.196Z,60.52
2022-10-05T04:53:53.519Z,60.98
2022-10-05T04:56:19.860Z,60.75
2022-10-05T04:58:46.185Z,60.38
2022-10-05T05:01:12.559Z,60.39
2022-10-05T05:03:38.999Z,60.68
2022-10-05T05:06:16.977Z,60.77
2022-10-05T05:08:44.213Z,59.83
2022-10-05T05:11:15.806Z,60.24
2022-10-05T05:13:43.150Z,60.88
2022-10-05T05:16:09.520Z,61.10
2022-10-05T05:18:35.905Z,61.69
2022-10-05T05:21:02.244Z,61.87
2022-10-05T05:23:28.578Z,62.35
2022-10-05T05:25:54.919Z,62.06
2022-10-05T05:28:21.330Z,60.85
2022-10-05T05:30:47.744Z,61.97
2022-10-05T05:33:14.079Z,60.78
2022-10-05T05:35:40.431Z,60.55
2022-10-05T05:38:06.775Z,59.10
2022-10-05T05:40:33.107Z,59.83
2022-10-05T05:42:59.461Z,61.37
2022-10-05T05:45:25.811Z,60.25
2022-10-05T05:47:52.222Z,61.75
2022-10-05T05:50:18.620Z,61.95
2022-10-05T05:52:44.968Z,61.23
2022-10-05T05:55:11.311Z,61.41
2022-10-05T05:57:37.649Z,60.71
2022-10-05T06:00:03.996Z,60.65
2022-10-05T06:02:30.376Z,61.36
2022-10-05T06:04:56.761Z,61.53
2022-10-05T06:07:26.793Z,60.25
2022-10-05T06:09:55.874Z,61.94
2022-10-05T06:12:22.205Z,61.61
2022-10-05T06:14:48.541Z,62.21
2022-10-05T06:17:14.873Z,62.73
2022-10-05T06:19:41.224Z,63.44
2022-10-05T06:22:07.562Z,61.92
2022-10-05T06:24:33.902Z,61.13
2022-10-05T06:27:00.237Z,61.49
2022-10-05T06:29:26.577Z,61.41
2022-10-05T06:31:57.936Z,61.64
2022-10-05T06:34:25.163Z,61.63
2022-10-05T06:36:51.496Z,61.17
2022-10-05T06:39:17.833Z,61.78
2022-10-05T06:41:44.166Z,62.26
2022-10-05T06:44:10.505Z,61.99
2022-10-05T06:46:36.832Z,62.49
2022-10-05T06:49:03.168Z,62.11
2022-10-05T06:51:29.520Z,62.11
2022-10-05T06:53:55.859Z,62.07
2022-10-05T06:56:22.192Z,63.02
2022-10-05T06:58:48.529Z,63.19
2022-10-05T07:01:14.929Z,62.00
2022-10-05T07:03:41.308Z,61.84
2022-10-05T07:06:07.638Z,61.92
2022-10-05T07:08:33.965Z,62.56
2022-10-05T07:11:00.314Z,61.92
2022-10-05T07:13:26.641Z,62.43
2022-10-05T07:15:52.978Z,62.47
2022-10-05T07:18:19.313Z,62.58
2022-10-05T07:20:49.047Z,62.59
2022-10-05T07:23:15.730Z,62.78
2022-10-05T07:25:42.063Z,62.26
2022-10-05T07:28:08.462Z,62.38
2022-10-05T07:30:34.956Z,62.23
2022-10-05T07:33:01.327Z,62.35
2022-10-05T07:35:27.670Z,62.43
2022-10-05T07:37:54.017Z,62.71
2022-10-05T07:40:20.361Z,62.91
2022-10-05T07:42:51.816Z,63.92
2022-10-05T07:45:18.672Z,63.88
2022-10-05T07:47:45.020Z,63.51
2022-10-05T07:50:11.380Z,63.29
2022-10-05T07:52:37.724Z,63.46
2022-10-05T07:55:04.070Z,63.81
2022-10-05T07:57:30.419Z,63.79
2022-10-05T07:59:56.761Z,63.92
2022-10-05T08:02:23.241Z,64.10
2022-10-05T08:04:49.669Z,63.27
2022-10-05T08:07:16.092Z,63.34
2022-10-05T08:09:42.460Z,62.70
2022-10-05T08:12:08.793Z,63.41
2022-10-05T08:14:35.141Z,61.78
2022-10-05T08:17:01.463Z,63.21
2022-10-05T08:19:27.802Z,61.95
2022-10-05T08:21:54.134Z,62.74
2022-10-05T08:24:20.541Z,62.37
2022-10-05T08:26:46.872Z,63.03
2022-10-05T08:29:13.994Z,62.27
2022-10-05T08:31:40.590Z,62.15
2022-10-05T08:34:06.986Z,61.90
2022-10-05T08:36:33.326Z,61.16
2022-10-05T08:38:59.669Z,61.08
2022-10-05T08:41:26.014Z,61.49
2022-10-05T08:43:52.341Z,60.54
2022-10-05T08:46:18.716Z,60.94
2022-10-05T08:48:45.086Z,60.94
2022-10-05T08:51:11.442Z,61.07
2022-10-05T08:53:37.773Z,62.11
2022-10-05T08:56:04.121Z,61.46
2022-10-05T08:58:30.489Z,61.67
2022-10-05T09:00:56.820Z,61.52
2022-10-05T09:03:23.155Z,62.40
2022-10-05T09:05:49.502Z,61.61
2022-10-05T09:08:15.832Z,61.46
2022-10-05T09:10:42.171Z,61.63
2022-10-05T09:13:08.500Z,61.11
2022-10-05T09:15:34.932Z,60.51
2022-10-05T09:18:01.305Z,60.05
2022-10-05T09:20:27.650Z,60.55
2022-10-05T09:22:53.996Z,59.07
2022-10-05T09:25:20.335Z,58.77
2022-10-05T09:27:46.675Z,59.70
2022-10-05T09:30:13.013Z,59.29
2022-10-05T09:32:39.338Z,57.06
2022-10-05T09:35:05.685Z,56.96
2022-10-05T09:37:32.035Z,57.70
2022-10-05T09:40:01.355Z,56.03
2022-10-05T09:42:28.035Z,56.40
2022-10-05T09:44:54.376Z,57.53
2022-10-05T09:47:20.717Z,58.05
2022-10-05T09:49:47.051Z,57.54
2022-10-05T09:52:18.603Z,58.22
2022-10-05T09:54:45.375Z,58.31
2022-10-05T09:57:11.709Z,58.80
2022-10-05T09:59:38.045Z,57.63
2022-10-05T10:02:04.444Z,58.41
2022-10-05T10:04:30.826Z,57.07
2022-10-05T10:06:57.165Z,58.24
2022-10-05T10:09:23.494Z,57.92
2022-10-05T10:11:50.174Z,57.76
2022-10-05T10:14:16.640Z,57.84
2022-10-05T10:16:43.005Z,58.87
2022-10-05T10:19:09.351Z,57.28
2022-10-05T10:21:35.690Z,57.57
2022-10-05T10:24:02.034Z,58.76
2022-10-05T10:26:28.369Z,58.33
2022-10-05T10:28:54.701Z,58.69
2022-10-05T10:31:21.094Z,57.36
2022-10-05T10:33:47.488Z,56.54
2022-10-05T10:36:13.825Z,57.51
2022-10-05T10:38:40.186Z,56.59
2022-10-05T10:41:06.538Z,57.36
2022-10-05T10:43:32.891Z,57.69
2022-10-05T10:45:59.297Z,58.17
2022-10-05T10:48:25.656Z,57.11
2022-10-05T10:50:52.006Z,55.99
2022-10-05T10:53:18.352Z,55.88
2022-10-05T10:55:44.690Z,58.03
2022-10-05T10:58:15.735Z,58.43
2022-10-05T11:00:42.476Z,58.62
2022-10-05T11:03:08.878Z,57.85
2022-10-05T11:05:35.325Z,58.24
2022-10-05T11:08:01.661Z,56.79
2022-10-05T11:10:28.000Z,56.30
2022-10-05T11:12:54.341Z,55.80
2022-10-05T11:15:20.694Z,54.42
2022-10-05T11:17:47.031Z,53.35
2022-10-05T11:20:13.361Z,54.22
2022-10-05T11:22:39.694Z,55.44
2022-10-05T11:25:06.029Z,53.87
2022-10-05T11:27:32.367Z,54.65
2022-10-05T11:29:58.725Z,54.86
2022-10-05T11:32:26.140Z,54.90
2022-10-05T11:34:52.474Z,54.68
2022-10-05T11:37:18.817Z,55.82
2022-10-05T11:39:45.148Z,54.12
2022-10-05T11:42:11.467Z,57.14
2022-10-05T11:44:37.818Z,54.59
2022-10-05T11:47:04.152Z,53.52
2022-10-05T11:49:30.477Z,52.83
2022-10-05T11:51:56.804Z,53.91
2022-10-05T11:54:23.150Z,54.84
2022-10-05T11:56:52.263Z,55.22
2022-10-05T11:59:20.962Z,55.76
2022-10-05T12:01:47.293Z,54.55
2022-10-05T12:04:13.703Z,55.60
2022-10-05T12:06:40.057Z,55.88
2022-10-05T12:09:06.400Z,53.81
2022-10-05T12:11:32.744Z,52.90
2022-10-05T12:13:59.118Z,55.41
2022-10-05T12:16:25.479Z,56.24
2022-10-05T12:18:51.885Z,56.71
2022-10-05T12:21:18.221Z,55.89
2022-10-05T12:23:44.539Z,55.70
2022-10-05T12:26:10.856Z,53.71
2022-10-05T12:28:37.181Z,56.56
2022-10-05T12:31:03.574Z,57.80
2022-10-05T12:33:29.930Z,55.03
2022-10-05T12:35:56.264Z,55.45
2022-10-05T12:38:22.598Z,53.47
2022-10-05T12:40:48.936Z,52.24
2022-10-05T12:43:15.282Z,54.35
2022-10-05T12:45:41.624Z,52.96
2022-10-05T12:48:08.028Z,54.44
2022-10-05T12:50:34.388Z,53.08
2022-10-05T12:53:00.725Z,53.08
2022-10-05T12:55:27.199Z,55.25
2022-10-05T12:57:53.571Z,52.72
2022-10-05T13:00:23.025Z,52.36
2022-10-05T13:02:49.639Z,53.96
2022-10-05T13:05:15.985Z,53.36
2022-10-05T13:07:42.317Z,53.43
2022-10-05T13:10:08.661Z,54.81
2022-10-05T13:12:35.015Z,54.85
2022-10-05T13:15:01.350Z,52.47
2022-10-05T13:17:27.680Z,50.67
2022-10-05T13:19:54.003Z,56.83
2022-10-05T13:22:20.342Z,53.87
2022-10-05T13:24:46.677Z,52.36
2022-10-05T13:27:13.005Z,55.19
2022-10-05T13:29:39.335Z,54.10
2022-10-05T13:32:05.668Z,52.51
2022-10-05T13:34:32.003Z,52.05
2022-10-05T13:36:58.328Z,53.57
2022-10-05T13:39:24.666Z,54.44
2022-10-05T13:41:51.001Z,53.83
2022-10-05T13:44:17.337Z,55.30
2022-10-05T13:46:43.685Z,53.77
2022-10-05T13:49:10.033Z,53.54
2022-10-05T13:51:36.366Z,52.92
2022-10-05T13:54:02.699Z,52.49
2022-10-05T13:56:29.078Z,54.41
2022-10-05T13:58:55.413Z,53.62
2022-10-05T14:01:21.749Z,53.83
2022-10-05T14:03:48.090Z,53.60
2022-10-05T14:06:14.430Z,54.47
2022-10-05T14:08:40.789Z,54.89
2022-10-05T14:11:07.165Z,50.81
2022-10-05T14:13:33.509Z,52.37
2022-10-05T14:15:59.927Z,51.61
2022-10-05T14:18:26.332Z,53.14
2022-10-05T14:20:52.673Z,53.33
2022-10-05T14:23:22.598Z,52.74
2022-10-05T14:25:49.105Z,53.66
2022-10-05T14:28:15.459Z,53.37
2022-10-05T14:30:41.813Z,52.93
2022-10-05T14:33:08.144Z,52.42
2022-10-05T14:35:34.481Z,52.16
2022-10-05T14:38:00.826Z,53.42
2022-10-05T14:40:27.160Z,53.47
2022-10-05T14:42:53.484Z,52.50
2022-10-05T14:45:19.803Z,54.10
2022-10-05T14:47:46.138Z,52.00
2022-10-05T14:50:12.481Z,52.32
2022-10-05T14:52:38.835Z,54.08
2022-10-05T14:55:05.186Z,54.09
2022-10-05T14:57:31.516Z,52.69
2022-10-05T14:59:57.853Z,51.54
2022-10-05T15:02:24.237Z,52.27
2022-10-05T15:04:50.601Z,51.54
2022-10-05T15:07:16.930Z,51.00
2022-10-05T15:09:43.263Z,54.64
2022-10-05T15:12:09.603Z,54.11
2022-10-05T15:14:35.947Z,54.30
2022-10-05T15:17:02.337Z,54.27
2022-10-05T15:19:28.703Z,54.47
2022-10-05T15:21:55.041Z,51.40
2022-10-05T15:24:21.367Z,51.59
2022-10-05T15:26:47.704Z,52.73
2022-10-05T15:29:14.036Z,52.55
2022-10-05T15:31:40.371Z,52.55
2022-10-05T15:34:06.711Z,53.65
2022-10-05T15:36:33.040Z,52.92
2022-10-05T15:39:00.512Z,53.10
2022-10-05T15:41:27.025Z,54.21
2022-10-05T15:43:53.373Z,53.50
2022-10-05T15:46:19.750Z,53.62
2022-10-05T15:48:46.147Z,54.05
2022-10-05T15:51:12.484Z,54.15
2022-10-05T15:53:38.829Z,54.06
2022-10-05T15:56:05.167Z,54.79
2022-10-05T15:58:31.515Z,54.12
2022-10-05T16:00:57.911Z,53.96
2022-10-05T16:03:24.320Z,55.08
2022-10-05T16:05:50.659Z,55.53
2022-10-05T16:08:16.995Z,54.80
2022-10-05T16:10:43.324Z,55.06
2022-10-05T16:13:09.658Z,54.56
2022-10-05T16:15:36.002Z,54.21
2022-10-05T16:18:02.341Z,53.21
2022-10-05T16:20:28.682Z,53.05
2022-10-05T16:22:55.028Z,52.13
2022-10-05T16:25:21.365Z,51.67
2022-10-05T16:27:47.707Z,51.43
2022-10-05T16:30:14.058Z,50.91
2022-10-05T16:32:40.398Z,51.16
2022-10-05T16:35:06.743Z,51.24
2022-10-05T16:37:33.072Z,50.75
2022-10-05T16:39:59.398Z,51.24
2022-10-05T16:42:25.731Z,50.52
2022-10-05T16:44:52.070Z,50.71
2022-10-05T16:47:18.392Z,50.16
2022-10-05T16:49:44.726Z,50.25
2022-10-05T16:52:11.079Z,49.92
2022-10-05T16:54:37.423Z,49.89
2022-10-05T16:57:03.762Z,50.14
2022-10-05T16:59:30.106Z,50.40
2022-10-05T17:01:56.486Z,50.36
2022-10-05T17:04:22.898Z,50.80
2022-10-05T17:06:49.246Z,51.32
2022-10-05T17:09:15.576Z,51.42
2022-10-05T17:11:41.919Z,51.42
2022-10-05T17:14:08.255Z,51.15
2022-10-05T17:16:34.597Z,52.24
2022-10-05T17:19:00.941Z,50.71
2022-10-05T17:21:27.282Z,51.33
2022-10-05T17:23:53.676Z,51.01
2022-10-05T17:26:20.042Z,51.37
2022-10-05T17:28:46.398Z,51.55
2022-10-05T17:31:12.769Z,51.12
2022-10-05T17:33:39.192Z,51.40
2022-10-05T17:36:05.518Z,51.51
2022-10-05T17:38:31.845Z,51.78
2022-10-05T17:40:58.182Z,51.81
2022-10-05T17:43:24.513Z,51.92
2022-10-05T17:45:50.868Z,51.47
2022-10-05T17:48:17.254Z,51.73
2022-10-05T17:50:43.583Z,51.38
2022-10-05T17:53:09.918Z,51.20
2022-10-05T17:55:36.265Z,51.12
2022-10-05T17:58:02.602Z,51.27
2022-10-05T18:00:28.936Z,51.45
2022-10-05T18:02:55.304Z,51.41
2022-10-05T18:05:21.652Z,51.29
2022-10-05T18:07:47.995Z,51.29
2022-10-05T18:10:14.327Z,51.07
2022-10-05T18:12:40.665Z,51.11
2022-10-05T18:15:07.051Z,51.25
2022-10-05T18:17:33.386Z,51.00
2022-10-05T18:19:59.723Z,50.93
2022-10-05T18:22:26.065Z,50.73
2022-10-05T18:24:52.415Z,50.93
2022-10-05T18:27:18.758Z,50.97
2022-10-05T18:29:45.137Z,51.45
2022-10-05T18:32:11.486Z,51.33
2022-10-05T18:34:37.824Z,51.48
2022-10-05T18:37:04.167Z,51.50
2022-10-05T18:39:30.505Z,51.69
2022-10-05T18:41:56.833Z,51.41
2022-10-05T18:44:23.165Z,52.21
2022-10-05T18:46:49.596Z,52.65
2022-10-05T18:49:15.966Z,53.03
2022-10-05T18:51:42.330Z,52.66
2022-10-05T18:54:08.657Z,52.79
2022-10-05T18:56:34.990Z,53.49
2022-10-05T18:59:01.321Z,52.93
2022-10-05T19:01:27.768Z,53.02
2022-10-05T19:03:54.224Z,53.99
2022-10-05T19:06:20.546Z,53.56
2022-10-05T19:08:46.897Z,53.94
2022-10-05T19:11:13.245Z,54.26
2022-10-05T19:13:39.579Z,54.07
2022-10-05T19:16:05.968Z,53.81
2022-10-05T19:18:32.333Z,54.00
2022-10-05T19:20:58.699Z,54.37
2022-10-05T19:23:25.427Z,55.16
2022-10-05T19:25:52.021Z,55.38
2022-10-05T19:28:18.386Z,55.65
2022-10-05T19:30:44.748Z,55.46
2022-10-05T19:33:11.111Z,55.97
2022-10-05T19:35:37.451Z,56.26
2022-10-05T19:38:03.816Z,56.01
2022-10-05T19:40:30.207Z,56.17
2022-10-05T19:42:56.578Z,56.90
2022-10-05T19:45:22.920Z,56.36
2022-10-05T19:47:49.265Z,56.42
2022-10-05T19:50:15.611Z,57.43
2022-10-05T19:52:44.230Z,57.21
2022-10-05T19:55:13.939Z,57.95
2022-10-05T19:57:40.271Z,58.17
2022-10-05T20:00:06.623Z,58.47
2022-10-05T20:02:32.995Z,58.23
2022-10-05T20:04:59.390Z,58.48
2022-10-05T20:07:25.733Z,58.33
2022-10-05T20:09:52.084Z,58.51
2022-10-05T20:12:18.418Z,59.28
2022-10-05T20:14:44.757Z,59.58
2022-10-05T20:17:11.118Z,58.56
2022-10-05T20:19:37.437Z,58.50
2022-10-05T20:22:03.768Z,57.84
2022-10-05T20:24:30.110Z,58.11
2022-10-05T20:26:56.450Z,58.72
2022-10-05T20:29:22.792Z,58.39
2022-10-05T20:31:49.218Z,59.49
2022-10-05T20:34:15.614Z,60.55
2022-10-05T20:36:41.951Z,61.42
2022-10-05T20:39:08.268Z,61.52
2022-10-05T20:41:34.596Z,61.81
2022-10-05T20:44:00.929Z,62.00
2022-10-05T20:46:27.317Z,61.47
2022-10-05T20:48:53.682Z,61.68
2022-10-05T20:51:20.014Z,61.25
2022-10-05T20:53:46.350Z,61.11
2022-10-05T20:56:12.694Z,61.63
2022-10-05T20:58:39.039Z,61.16
2022-10-05T21:01:05.423Z,61.25
2022-10-05T21:03:31.805Z,61.90
2022-10-05T21:05:58.147Z,61.65
2022-10-05T21:08:24.737Z,61.30
2022-10-05T21:10:51.267Z,62.27
2022-10-05T21:13:17.606Z,62.39
2022-10-05T21:15:43.941Z,62.53
2022-10-05T21:18:10.271Z,62.34
2022-10-05T21:20:36.617Z,62.80
2022-10-05T21:23:02.962Z,62.91
2022-10-05T21:25:29.307Z,62.00
2022-10-05T21:27:55.644Z,61.99
2022-10-05T21:30:21.978Z,62.16
2022-10-05T21:32:48.343Z,62.75
2022-10-05T21:35:14.753Z,62.03
2022-10-05T21:37:41.096Z,62.43
2022-10-05T21:40:07.430Z,62.93
2022-10-05T21:42:33.790Z,62.56
2022-10-05T21:45:00.127Z,61.82
2022-10-05T21:47:26.465Z,62.41
2022-10-05T21:49:52.788Z,61.81
2022-10-05T21:52:19.140Z,61.32
2022-10-05T21:54:45.464Z,62.06
2022-10-05T21:57:11.796Z,61.88
2022-10-05T21:59:38.133Z,62.18
2022-10-05T22:02:04.457Z,61.37
2022-10-05T22:04:30.811Z,60.77
2022-10-05T22:06:57.157Z,61.06
2022-10-05T22:09:23.836Z,61.21
2022-10-05T22:11:50.171Z,60.61
2022-10-05T22:14:16.512Z,61.30
2022-10-05T22:16:42.954Z,60.99
2022-10-05T22:19:09.345Z,61.62
2022-10-05T22:21:35.685Z,60.45
2022-10-05T22:24:02.014Z,61.22
2022-10-05T22:26:28.357Z,60.48
2022-10-05T22:28:54.694Z,60.32
2022-10-05T22:31:21.096Z,60.16
2022-10-05T22:33:47.534Z,61.33
2022-10-05T22:36:13.866Z,61.12
2022-10-05T22:38:40.204Z,60.91
2022-10-05T22:41:06.565Z,62.02
2022-10-05T22:43:32.933Z,61.82
2022-10-05T22:45:59.330Z,60.89
2022-10-05T22:48:25.996Z,60.56
2022-10-05T22:50:52.737Z,60.34
2022-10-05T22:53:19.076Z,61.58
2022-10-05T22:55:45.412Z,61.18
2022-10-05T22:58:11.733Z,62.04
2022-10-05T23:00:57.551Z,62.90
2022-10-05T23:03:24.386Z,61.03
2022-10-05T23:05:50.734Z,62.01
2022-10-05T23:08:17.064Z,61.84
2022-10-05T23:10:43.399Z,60.52
2022-10-05T23:13:09.736Z,63.24
2022-10-05T23:15:36.080Z,62.32
2022-10-05T23:18:02.414Z,61.25
2022-10-05T23:20:28.752Z,61.38
2022-10-05T23:22:55.092Z,62.60
2022-10-05T23:25:21.434Z,62.46
2022-10-05T23:27:47.766Z,61.27
2022-10-05T23:30:14.108Z,62.83
2022-10-05T23:32:40.441Z,62.46
2022-10-05T23:35:06.780Z,63.70
2022-10-05T23:37:33.113Z,63.91
2022-10-05T23:39:59.446Z,62.17
2022-10-05T23:42:25.785Z,61.98
2022-10-05T23:44:52.128Z,63.01
2022-10-05T23:47:18.453Z,62.35
2022-10-05T23:49:44.811Z,62.06
2022-10-05T23:52:11.149Z,62.32
2022-10-05T23:54:37.493Z,61.98
2022-10-05T23:57:03.847Z,61.77
2022-10-05T23:59:30.176Z,62.81
